createdAt,value
2023-04-12T00:02:22.280Z,97431.84
2023-04-12T00:04:55.687Z,97423.16
2023-04-12T00:07:27.506Z,97419.19
2023-04-12T00:09:57.780Z,97417.22
2023-04-12T00:12:31.146Z,97418.88
2023-04-12T00:15:01.674Z,97413.09
2023-04-12T00:17:34.597Z,97401.00
2023-04-12T00:20:06.282Z,97392.56
2023-04-12T00:22:37.228Z,97392.56
2023-04-12T00:25:08.177Z,97390.16
2023-04-12T00:27:39.199Z,97385.09
2023-04-12T00:30:12.182Z,97388.91
2023-04-12T00:32:45.074Z,97383.88
2023-04-12T00:35:15.357Z,97379.16
2023-04-12T00:37:45.583Z,97372.91
2023-04-12T00:40:16.387Z,97369.84
2023-04-12T00:42:47.103Z,97360.06
2023-04-12T00:45:17.733Z,97360.50
2023-04-12T00:47:50.795Z,97359.44
2023-04-12T00:50:21.476Z,97357.56
2023-04-12T00:52:52.250Z,97359.09
2023-04-12T00:55:22.579Z,97353.13
2023-04-12T00:57:53.105Z,97355.75
2023-04-12T01:00:23.843Z,97351.94
2023-04-12T01:02:57.321Z,97354.81
2023-04-12T01:05:27.721Z,97344.91
2023-04-12T01:08:07.875Z,97353.47
2023-04-12T01:10:49.768Z,97350.16
2023-04-12T01:13:30.242Z,97346.66
2023-04-12T01:16:07.814Z,97340.38
2023-04-12T01:18:46.115Z,97341.00
2023-04-12T01:21:19.148Z,97338.16
2023-04-12T01:24:04.051Z,97334.09
2023-04-12T01:26:38.386Z,97329.38
2023-04-12T01:29:15.887Z,97327.25
2023-04-12T01:31:58.276Z,97317.34
2023-04-12T01:34:30.502Z,97314.91
2023-04-12T01:37:02.076Z,97304.25
2023-04-12T01:39:33.067Z,97299.06
2023-04-12T01:42:03.362Z,97287.91
2023-04-12T01:44:36.320Z,97289.56
2023-04-12T01:47:06.567Z,97286.34
2023-04-12T01:49:47.046Z,97270.22
2023-04-12T01:52:23.492Z,97278.59
2023-04-12T01:54:56.872Z,97270.81
2023-04-12T01:57:29.030Z,97275.09
2023-04-12T02:00:03.520Z,97263.84
2023-04-12T02:02:45.200Z,97269.31
2023-04-12T02:05:15.880Z,97266.09
2023-04-12T02:07:46.831Z,97269.50
2023-04-12T02:10:18.631Z,97274.69
2023-04-12T02:12:50.117Z,97258.97
2023-04-12T02:15:23.729Z,97256.88
2023-04-12T02:17:54.758Z,97263.31
2023-04-12T02:20:27.323Z,97268.81
2023-04-12T02:22:57.801Z,97262.41
2023-04-12T02:25:28.024Z,97255.97
2023-04-12T02:27:58.396Z,97261.00
2023-04-12T02:30:31.338Z,97258.09
2023-04-12T02:33:02.704Z,97249.53
2023-04-12T02:35:37.824Z,97250.44
2023-04-12T02:38:15.073Z,97240.50
2023-04-12T02:40:45.606Z,97245.06
2023-04-12T02:43:19.041Z,97237.16
2023-04-12T02:45:56.280Z,97232.75
2023-04-12T02:48:26.857Z,97226.19
2023-04-12T02:50:57.594Z,97227.38
2023-04-12T02:53:29.831Z,97224.19
2023-04-12T02:56:19.381Z,97220.69
2023-04-12T02:58:53.756Z,97219.47
2023-04-12T03:01:46.738Z,97206.78
2023-04-12T03:04:30.825Z,97205.28
2023-04-12T03:07:03.856Z,97201.78
2023-04-12T03:09:44.775Z,97202.84
2023-04-12T03:12:16.947Z,97192.44
2023-04-12T03:14:59.885Z,97188.03
2023-04-12T03:17:32.918Z,97190.63
2023-04-12T03:20:10.307Z,97187.56
2023-04-12T03:22:44.068Z,97175.31
2023-04-12T03:25:14.472Z,97183.09
2023-04-12T03:27:52.960Z,97175.97
2023-04-12T03:30:26.408Z,97176.13
2023-04-12T03:33:01.997Z,97174.59
2023-04-12T03:35:32.601Z,97173.97
2023-04-12T03:38:03.511Z,97171.41
2023-04-12T03:40:34.169Z,97167.44
2023-04-12T03:43:05.002Z,97163.78
2023-04-12T03:45:35.279Z,97158.56
2023-04-12T03:48:11.242Z,97154.31
2023-04-12T03:50:48.607Z,97154.03
2023-04-12T03:53:24.432Z,97158.50
2023-04-12T03:55:55.201Z,97153.66
2023-04-12T03:58:26.243Z,97156.06
2023-04-12T04:00:56.850Z,97152.25
2023-04-12T04:03:30.343Z,97142.78
2023-04-12T04:06:12.567Z,97149.81
2023-04-12T04:08:42.904Z,97143.72
2023-04-12T04:11:13.835Z,97139.00
2023-04-12T04:13:47.997Z,97134.78
2023-04-12T04:16:22.810Z,97126.38
2023-04-12T04:18:57.010Z,97123.31
2023-04-12T04:21:30.696Z,97124.56
2023-04-12T04:24:02.724Z,97117.25
2023-04-12T04:26:38.640Z,97119.66
2023-04-12T04:29:35.010Z,97120.31
2023-04-12T04:32:07.898Z,97118.78
2023-04-12T04:34:41.079Z,97122.91
2023-04-12T04:37:15.501Z,97125.06
2023-04-12T04:39:48.344Z,97115.44
2023-04-12T04:42:18.541Z,97129.03
2023-04-12T04:45:05.689Z,97113.31
2023-04-12T04:47:41.381Z,97112.69
2023-04-12T04:50:14.613Z,97105.81
2023-04-12T04:52:44.858Z,97096.97
2023-04-12T04:55:17.783Z,97093.88
2023-04-12T04:57:49.927Z,97096.47
2023-04-12T05:00:22.657Z,97095.25
2023-04-12T05:02:58.311Z,97090.78
2023-04-12T05:05:35.197Z,97084.91
2023-04-12T05:08:11.207Z,97083.50
2023-04-12T05:10:42.677Z,97083.94
2023-04-12T05:13:12.928Z,97080.25
2023-04-12T05:15:43.884Z,97076.69
2023-04-12T05:18:14.229Z,97085.22
2023-04-12T05:20:48.560Z,97074.78
2023-04-12T05:23:18.893Z,97073.50
2023-04-12T05:25:50.290Z,97070.94
2023-04-12T05:28:22.155Z,97073.75
2023-04-12T05:30:52.853Z,97072.28
2023-04-12T05:33:27.687Z,97061.13
2023-04-12T05:36:00.772Z,97062.66
2023-04-12T05:38:31.961Z,97057.75
2023-04-12T05:41:07.679Z,97054.72
2023-04-12T05:43:38.045Z,97048.03
2023-04-12T05:46:11.612Z,97046.59
2023-04-12T05:48:41.923Z,97051.00
2023-04-12T05:51:14.833Z,97045.94
2023-04-12T05:53:45.251Z,97045.84
2023-04-12T05:56:17.078Z,97033.56
2023-04-12T05:58:48.463Z,97030.22
2023-04-12T06:01:19.900Z,97027.56
2023-04-12T06:03:51.574Z,97008.31
2023-04-12T06:06:24.628Z,97007.84
2023-04-12T06:08:55.118Z,97007.75
2023-04-12T06:11:25.480Z,97005.06
2023-04-12T06:13:56.761Z,96995.25
2023-04-12T06:16:27.140Z,96993.41
2023-04-12T06:18:57.787Z,96996.13
2023-04-12T06:21:32.533Z,96986.91
2023-04-12T06:24:02.815Z,96984.09
2023-04-12T06:26:39.907Z,96984.09
2023-04-12T06:29:10.915Z,96981.41
2023-04-12T06:31:41.558Z,96979.63
2023-04-12T06:34:11.948Z,96983.59
2023-04-12T06:36:46.600Z,96979.78
2023-04-12T06:39:17.138Z,96979.78
2023-04-12T06:41:47.756Z,96971.63
2023-04-12T06:44:22.767Z,96964.47
2023-04-12T06:46:53.003Z,96971.22
2023-04-12T06:49:23.196Z,96964.69
2023-04-12T06:51:56.201Z,96955.81
2023-04-12T06:54:26.546Z,96957.28
2023-04-12T06:56:57.568Z,96956.34
2023-04-12T06:59:27.954Z,96959.88
2023-04-12T07:01:58.147Z,96954.16
2023-04-12T07:04:28.396Z,96949.50
2023-04-12T07:07:01.322Z,96944.69
2023-04-12T07:09:34.021Z,96944.34
2023-04-12T07:12:04.633Z,96949.44
2023-04-12T07:14:34.881Z,96943.91
2023-04-12T07:17:05.389Z,96933.28
2023-04-12T07:19:35.633Z,96921.69
2023-04-12T07:22:08.463Z,96917.81
2023-04-12T07:24:38.693Z,96912.50
2023-04-12T07:27:08.999Z,96920.72
2023-04-12T07:29:39.238Z,96903.31
2023-04-12T07:32:12.823Z,96896.88
2023-04-12T07:34:43.079Z,96894.88
2023-04-12T07:37:18.084Z,96882.13
2023-04-12T07:39:48.271Z,96878.72
2023-04-12T07:42:18.612Z,96893.47
2023-04-12T07:44:48.769Z,96882.53
2023-04-12T07:47:18.994Z,96873.06
2023-04-12T07:49:49.206Z,96866.81
2023-04-12T07:52:22.087Z,96856.72
2023-04-12T07:54:52.312Z,96854.00
2023-04-12T07:57:23.675Z,96850.38
2023-04-12T07:59:53.985Z,96844.78
2023-04-12T08:02:27.785Z,96840.75
2023-04-12T08:04:58.144Z,96837.38
2023-04-12T08:07:31.073Z,96835.44
2023-04-12T08:10:01.811Z,96829.84
2023-04-12T08:12:32.016Z,96837.00
2023-04-12T08:15:02.241Z,96821.75
2023-04-12T08:17:32.573Z,96835.53
2023-04-12T08:20:03.987Z,96831.25
2023-04-12T08:22:36.955Z,96818.69
2023-04-12T08:25:07.900Z,96814.56
2023-04-12T08:27:38.246Z,96800.16
2023-04-12T08:30:10.000Z,96817.69
2023-04-12T08:32:40.513Z,96810.00
2023-04-12T08:35:12.235Z,96813.03
2023-04-12T08:37:45.070Z,96800.13
2023-04-12T08:40:15.370Z,96787.88
2023-04-12T08:42:46.829Z,96792.81
2023-04-12T08:45:17.525Z,96814.34
2023-04-12T08:47:48.249Z,96800.88
2023-04-12T08:50:18.611Z,96786.03
2023-04-12T08:52:52.527Z,96791.31
2023-04-12T08:55:22.849Z,96800.25
2023-04-12T08:57:55.473Z,96803.50
2023-04-12T09:00:26.053Z,96797.50
2023-04-12T09:02:56.653Z,96795.25
2023-04-12T09:05:32.035Z,96786.25
2023-04-12T09:08:05.435Z,96778.22
2023-04-12T09:10:37.258Z,96771.03
2023-04-12T09:13:07.839Z,96770.75
2023-04-12T09:15:38.602Z,96759.66
2023-04-12T09:18:11.595Z,96758.59
2023-04-12T09:20:42.399Z,96773.72
2023-04-12T09:23:25.620Z,96768.81
2023-04-12T09:25:55.876Z,96762.59
2023-04-12T09:28:28.195Z,96727.91
2023-04-12T09:30:59.459Z,96768.31
2023-04-12T09:33:37.368Z,96739.25
2023-04-12T09:36:13.817Z,96745.56
2023-04-12T09:39:02.243Z,96736.72
2023-04-12T09:41:33.223Z,96733.53
2023-04-12T09:44:03.543Z,96732.03
2023-04-12T09:46:34.228Z,96719.56
2023-04-12T09:49:05.880Z,96720.03
2023-04-12T09:51:37.600Z,96707.53
2023-04-12T09:54:13.103Z,96704.84
2023-04-12T09:56:44.593Z,96705.28
2023-04-12T09:59:16.932Z,96693.03
2023-04-12T10:01:47.551Z,96675.56
2023-04-12T10:04:17.943Z,96687.09
2023-04-12T10:06:48.540Z,96676.00
2023-04-12T10:09:21.843Z,96678.41
2023-04-12T10:11:52.550Z,96674.84
2023-04-12T10:14:24.500Z,96667.53
2023-04-12T10:16:56.424Z,96676.63
2023-04-12T10:19:27.293Z,96669.69
2023-04-12T10:21:57.643Z,96655.06
2023-04-12T10:24:32.311Z,96655.06
2023-04-12T10:27:04.760Z,96657.84
2023-04-12T10:29:37.445Z,96644.66
2023-04-12T10:32:24.477Z,96659.59
2023-04-12T10:35:03.126Z,96640.81
2023-04-12T10:38:01.104Z,96623.25
2023-04-12T10:40:35.918Z,96634.84
2023-04-12T10:43:30.617Z,96626.69
2023-04-12T10:46:04.635Z,96624.09
2023-04-12T10:48:35.698Z,96628.44
2023-04-12T10:51:23.646Z,96621.16
2023-04-12T10:53:54.498Z,96600.56
2023-04-12T10:56:42.615Z,96602.09
2023-04-12T10:59:18.543Z,96596.41
2023-04-12T11:02:14.596Z,96592.66
2023-04-12T11:05:09.155Z,96595.00
2023-04-12T11:08:06.926Z,96593.28
2023-04-12T11:10:44.817Z,96578.47
2023-04-12T11:13:22.692Z,96575.84
2023-04-12T11:15:57.115Z,96569.97
2023-04-12T11:18:29.390Z,96566.41
2023-04-12T11:21:00.716Z,96600.84
2023-04-12T11:23:31.670Z,96563.81
2023-04-12T11:26:02.355Z,96556.09
2023-04-12T11:28:35.632Z,96568.19
2023-04-12T11:31:06.657Z,96549.78
2023-04-12T11:33:38.003Z,96540.28
2023-04-12T11:36:09.409Z,96544.97
2023-04-12T11:38:40.974Z,96542.41
2023-04-12T11:41:12.369Z,96546.38
2023-04-12T11:43:46.187Z,96535.63
2023-04-12T11:46:18.554Z,96531.63
2023-04-12T11:48:49.476Z,96523.19
2023-04-12T11:51:25.339Z,96517.63
2023-04-12T11:53:57.341Z,96530.81
2023-04-12T11:56:27.848Z,96534.28
2023-04-12T11:59:00.718Z,96514.34
2023-04-12T12:01:32.111Z,96508.13
2023-04-12T12:04:03.185Z,96510.31
2023-04-12T12:06:34.730Z,96504.53
2023-04-12T12:09:05.911Z,96502.44
2023-04-12T12:11:36.162Z,96492.84
2023-04-12T12:14:09.481Z,96499.41
2023-04-12T12:16:41.666Z,96491.31
2023-04-12T12:19:11.938Z,96514.75
2023-04-12T12:21:42.204Z,96495.41
2023-04-12T12:24:16.878Z,96515.06
2023-04-12T12:26:47.248Z,96502.13
2023-04-12T12:29:24.606Z,96479.97
2023-04-12T12:31:54.949Z,96500.97
2023-04-12T12:34:26.920Z,96482.16
2023-04-12T12:36:58.723Z,96487.94
2023-04-12T12:39:29.056Z,96492.84
2023-04-12T12:42:00.454Z,96494.88
2023-04-12T12:44:35.499Z,96513.41
2023-04-12T12:47:14.034Z,96496.97
2023-04-12T12:49:45.080Z,96503.59
2023-04-12T12:52:17.791Z,96516.66
2023-04-12T12:54:48.242Z,96509.25
2023-04-12T12:57:18.526Z,96515.22
2023-04-12T12:59:51.376Z,96494.53
2023-04-12T13:02:21.765Z,96509.31
2023-04-12T13:04:52.384Z,96494.56
2023-04-12T13:07:22.654Z,96494.00
2023-04-12T13:09:53.188Z,96504.94
2023-04-12T13:12:23.458Z,96481.28
2023-04-12T13:15:12.952Z,96486.53
2023-04-12T13:17:46.804Z,96490.25
2023-04-12T13:20:17.072Z,96474.38
2023-04-12T13:22:47.270Z,96475.38
2023-04-12T13:25:17.568Z,96464.06
2023-04-12T13:27:47.721Z,96463.09
2023-04-12T13:30:21.447Z,96443.13
2023-04-12T13:32:51.711Z,96453.22
2023-04-12T13:35:22.066Z,96444.06
2023-04-12T13:37:52.208Z,96451.19
2023-04-12T13:40:22.612Z,96454.44
2023-04-12T13:42:52.790Z,96433.19
2023-04-12T13:45:26.342Z,96433.47
2023-04-12T13:47:56.702Z,96440.22
2023-04-12T13:50:27.509Z,96427.91
2023-04-12T13:52:57.698Z,96422.75
2023-04-12T13:55:27.915Z,96417.66
2023-04-12T13:57:58.187Z,96413.44
2023-04-12T14:00:31.188Z,96421.50
2023-04-12T14:03:01.630Z,96422.06
2023-04-12T14:05:32.050Z,96424.41
2023-04-12T14:08:02.328Z,96417.75
2023-04-12T14:10:32.598Z,96419.44
2023-04-12T14:13:02.841Z,96419.06
2023-04-12T14:15:35.727Z,96417.50
2023-04-12T14:18:06.099Z,96419.66
2023-04-12T14:20:36.346Z,96412.34
2023-04-12T14:23:08.017Z,96418.19
2023-04-12T14:25:38.689Z,96414.44
2023-04-12T14:28:09.011Z,96421.09
2023-04-12T14:30:42.379Z,96404.63
2023-04-12T14:33:12.752Z,96389.03
2023-04-12T14:35:43.125Z,96390.66
2023-04-12T14:38:13.425Z,96383.09
2023-04-12T14:40:43.607Z,96387.41
2023-04-12T14:43:13.819Z,96385.56
2023-04-12T14:45:46.747Z,96390.09
2023-04-12T14:48:16.997Z,96386.59
2023-04-12T14:50:47.203Z,96381.56
2023-04-12T14:53:19.857Z,96379.31
2023-04-12T14:55:50.484Z,96383.31
2023-04-12T14:58:20.994Z,96384.88
2023-04-12T15:00:54.368Z,96381.28
2023-04-12T15:03:26.795Z,96387.03
2023-04-12T15:05:58.393Z,96380.94
2023-04-12T15:08:29.234Z,96383.63
2023-04-12T15:10:59.471Z,96391.19
2023-04-12T15:13:33.859Z,96383.31
2023-04-12T15:16:09.058Z,96372.47
2023-04-12T15:18:42.080Z,96372.59
2023-04-12T15:21:13.066Z,96378.94
2023-04-12T15:23:45.185Z,96371.66
2023-04-12T15:26:16.116Z,96375.03
2023-04-12T15:28:46.562Z,96367.72
2023-04-12T15:31:22.140Z,96375.81
2023-04-12T15:33:52.578Z,96363.75
2023-04-12T15:36:22.943Z,96365.47
2023-04-12T15:38:54.619Z,96358.63
2023-04-12T15:41:24.799Z,96356.47
2023-04-12T15:43:54.980Z,96352.38
2023-04-12T15:46:27.888Z,96348.78
2023-04-12T15:48:58.123Z,96350.19
2023-04-12T15:51:28.386Z,96333.56
2023-04-12T15:53:59.075Z,96335.03
2023-04-12T15:56:30.021Z,96334.78
2023-04-12T15:59:01.350Z,96326.00
2023-04-12T16:01:35.967Z,96327.28
2023-04-12T16:04:07.375Z,96321.75
2023-04-12T16:06:38.483Z,96316.09
2023-04-12T16:09:09.132Z,96300.06
2023-04-12T16:11:39.348Z,96292.72
2023-04-12T16:14:10.324Z,96301.94
2023-04-12T16:16:43.432Z,96297.50
2023-04-12T16:19:14.117Z,96302.78
2023-04-12T16:21:45.088Z,96302.28
2023-04-12T16:24:15.365Z,96304.09
2023-04-12T16:26:46.392Z,96287.22
2023-04-12T16:29:16.938Z,96286.88
2023-04-12T16:31:50.016Z,96286.19
2023-04-12T16:34:22.174Z,96281.66
2023-04-12T16:36:52.775Z,96275.31
2023-04-12T16:39:23.310Z,96269.47
2023-04-12T16:41:53.494Z,96272.59
2023-04-12T16:44:23.709Z,96269.81
2023-04-12T16:46:56.939Z,96266.53
2023-04-12T16:49:27.685Z,96260.53
2023-04-12T16:51:59.453Z,96251.50
2023-04-12T16:54:29.868Z,96255.53
2023-04-12T16:57:00.143Z,96253.72
2023-04-12T16:59:30.505Z,96259.94
2023-04-12T17:02:03.639Z,96249.34
2023-04-12T17:04:34.187Z,96248.25
2023-04-12T17:07:05.427Z,96256.09
2023-04-12T17:09:35.661Z,96259.81
2023-04-12T17:12:05.983Z,96263.50
2023-04-12T17:14:36.500Z,96264.75
2023-04-12T17:17:09.413Z,96267.03
2023-04-12T17:19:39.625Z,96266.47
2023-04-12T17:22:09.990Z,96265.72
2023-04-12T17:24:40.207Z,96262.00
2023-04-12T17:27:10.381Z,96258.13
2023-04-12T17:29:40.610Z,96245.00
2023-04-12T17:32:13.735Z,96241.19
2023-04-12T17:34:45.089Z,96258.00
2023-04-12T17:37:15.280Z,96257.84
2023-04-12T17:39:45.685Z,96260.66
2023-04-12T17:42:15.890Z,96258.41
2023-04-12T17:44:46.196Z,96253.84
2023-04-12T17:47:19.251Z,96250.59
2023-04-12T17:49:49.514Z,96256.94
2023-04-12T17:52:20.331Z,96260.84
2023-04-12T17:54:51.564Z,96245.97
2023-04-12T17:57:22.027Z,96253.78
2023-04-12T17:59:52.251Z,96245.75
2023-04-12T18:02:25.409Z,96236.28
2023-04-12T18:04:55.942Z,96245.94
2023-04-12T18:07:27.408Z,96258.06
2023-04-12T18:09:57.804Z,96239.44
2023-04-12T18:12:28.169Z,96236.91
2023-04-12T18:14:59.053Z,96246.22
2023-04-12T18:17:32.143Z,96245.72
2023-04-12T18:20:03.158Z,96252.53
2023-04-12T18:22:33.832Z,96259.41
2023-04-12T18:25:04.161Z,96261.47
2023-04-12T18:27:35.123Z,96252.34
2023-04-12T18:30:08.580Z,96245.03
2023-04-12T18:32:41.485Z,96239.47
2023-04-12T18:35:12.199Z,96239.22
2023-04-12T18:37:43.828Z,96227.84
2023-04-12T18:40:16.227Z,96233.97
2023-04-12T18:42:46.777Z,96233.00
2023-04-12T18:45:17.056Z,96229.66
2023-04-12T18:47:50.007Z,96233.44
2023-04-12T18:50:20.314Z,96239.47
2023-04-12T18:52:50.511Z,96248.78
2023-04-12T18:55:21.317Z,96246.28
2023-04-12T18:57:51.559Z,96247.28
2023-04-12T19:00:22.718Z,96234.09
2023-04-12T19:02:55.755Z,96234.84
2023-04-12T19:05:26.582Z,96226.06
2023-04-12T19:07:56.971Z,96218.72
2023-04-12T19:10:30.711Z,96213.63
2023-04-12T19:13:02.597Z,96206.78
2023-04-12T19:15:34.077Z,96217.44
2023-04-12T19:18:07.460Z,96209.34
2023-04-12T19:20:37.650Z,96204.63
2023-04-12T19:23:07.937Z,96190.25
2023-04-12T19:25:38.207Z,96203.84
2023-04-12T19:28:08.648Z,96194.53
2023-04-12T19:30:38.830Z,96187.22
2023-04-12T19:33:11.839Z,96180.69
2023-04-12T19:35:42.398Z,96190.66
2023-04-12T19:38:12.696Z,96200.69
2023-04-12T19:40:42.951Z,96204.41
2023-04-12T19:43:14.447Z,96206.69
2023-04-12T19:45:44.913Z,96212.53
2023-04-12T19:48:17.880Z,96223.38
2023-04-12T19:50:49.498Z,96223.38
2023-04-12T19:53:21.741Z,96226.09
2023-04-12T19:55:52.712Z,96229.06
2023-04-12T19:58:23.671Z,96235.66
2023-04-12T20:00:55.121Z,96237.88
2023-04-12T20:03:28.729Z,96240.38
2023-04-12T20:06:03.992Z,96232.34
2023-04-12T20:08:35.717Z,96242.94
2023-04-12T20:11:05.927Z,96254.28
2023-04-12T20:13:36.585Z,96254.97
2023-04-12T20:16:07.164Z,96255.94
2023-04-12T20:18:40.009Z,96260.47
2023-04-12T20:21:11.056Z,96264.53
2023-04-12T20:23:41.269Z,96264.53
2023-04-12T20:26:11.482Z,96269.00
2023-04-12T20:28:41.760Z,96264.66
2023-04-12T20:31:13.070Z,96264.19
2023-04-12T20:33:46.078Z,96271.19
2023-04-12T20:36:16.293Z,96271.72
2023-04-12T20:38:47.064Z,96274.50
2023-04-12T20:41:17.286Z,96280.56
2023-04-12T20:43:48.522Z,96283.78
2023-04-12T20:46:21.189Z,96278.78
2023-04-12T20:48:56.634Z,96287.59
2023-04-12T20:51:28.061Z,96285.81
2023-04-12T20:53:58.627Z,96278.38
2023-04-12T20:56:29.755Z,96269.03
2023-04-12T20:59:00.861Z,96265.53
2023-04-12T21:01:31.231Z,96267.81
2023-04-12T21:04:06.468Z,96266.44
2023-04-12T21:06:37.783Z,96270.72
2023-04-12T21:09:10.242Z,96278.53
2023-04-12T21:11:41.537Z,96284.88
2023-04-12T21:14:12.345Z,96288.91
2023-04-12T21:16:43.978Z,96296.19
2023-04-12T21:19:18.399Z,96294.75
2023-04-12T21:21:50.874Z,96289.25
2023-04-12T21:24:21.885Z,96288.47
2023-04-12T21:26:58.542Z,96276.31
2023-04-12T21:29:31.982Z,96274.09
2023-04-12T21:32:05.913Z,96280.91
2023-04-12T21:34:39.422Z,96285.78
2023-04-12T21:37:09.926Z,96267.41
2023-04-12T21:39:40.641Z,96259.50
2023-04-12T21:42:11.014Z,96267.06
2023-04-12T21:44:41.463Z,96297.16
2023-04-12T21:47:12.311Z,96295.94
2023-04-12T21:49:45.230Z,96288.56
2023-04-12T21:52:15.703Z,96277.53
2023-04-12T21:54:46.007Z,96284.28
2023-04-12T21:57:17.722Z,96294.66
2023-04-12T21:59:47.949Z,96296.16
2023-04-12T22:02:18.735Z,96291.84
2023-04-12T22:04:52.053Z,96296.63
2023-04-12T22:07:22.986Z,96294.47
2023-04-12T22:09:53.763Z,96294.53
2023-04-12T22:12:25.782Z,96285.22
2023-04-12T22:14:57.795Z,96287.44
2023-04-12T22:17:28.058Z,96301.56
2023-04-12T22:20:01.228Z,96304.84
2023-04-12T22:22:32.569Z,96310.13
2023-04-12T22:25:02.816Z,96314.91
2023-04-12T22:27:34.428Z,96328.78
2023-04-12T22:30:04.595Z,96320.44
2023-04-12T22:32:35.131Z,96323.16
2023-04-12T22:35:09.305Z,96328.25
2023-04-12T22:37:41.542Z,96344.38
2023-04-12T22:40:14.498Z,96336.81
2023-04-12T22:42:47.619Z,96342.34
2023-04-12T22:45:18.339Z,96347.88
2023-04-12T22:47:51.415Z,96355.44
2023-04-12T22:50:25.134Z,96358.97
2023-04-12T22:52:57.898Z,96341.31
2023-04-12T22:55:29.014Z,96355.91
2023-04-12T22:57:59.342Z,96349.13
2023-04-12T23:00:30.683Z,96352.72
2023-04-12T23:03:02.199Z,96352.47
2023-04-12T23:05:36.016Z,96351.47
2023-04-12T23:08:06.928Z,96350.00
2023-04-12T23:10:37.883Z,96352.81
2023-04-12T23:13:08.135Z,96358.81
2023-04-12T23:15:40.715Z,96372.41
2023-04-12T23:18:11.236Z,96369.91
2023-04-12T23:20:44.977Z,96363.38
2023-04-12T23:23:15.219Z,96365.63
2023-04-12T23:25:45.623Z,96373.66
2023-04-12T23:28:19.505Z,96374.44
2023-04-12T23:30:51.228Z,96381.47
2023-04-12T23:33:22.810Z,96369.69
2023-04-12T23:35:56.277Z,96374.91
2023-04-12T23:38:32.443Z,96383.44
2023-04-12T23:41:04.236Z,96385.72
2023-04-12T23:43:35.719Z,96388.94
2023-04-12T23:46:06.883Z,96391.25
2023-04-12T23:48:38.004Z,96379.38
2023-04-12T23:51:11.933Z,96372.78
2023-04-12T23:53:42.151Z,96373.03
2023-04-12T23:56:13.567Z,96373.84
2023-04-12T23:58:43.771Z,96378.16
